Terminal Aerodrome Forecast
Issued by NWS Twin Cities, MN

Home | Current Version | Previous Version | Text Only | Print | Product List | Glossary Off
Versions: 1 2 3 4 5 6 7 8 9 10 11 12 13 14 15 16 17 18

278
FTUS43 KMPX 211736
TAFSTC
TAF
KSTC 211736Z 2118/2218 14012KT P6SM FEW050 SCT090 BKN250
     FM220100 12006KT P6SM BKN090
     FM220600 12005KT P6SM VCTS BKN090CB
     FM221000 34005KT P6SM BKN020
     FM221600 32006KT P6SM BKN040 BKN090=

USA.gov is the U.S. government's official web portal to all federal, state and local government web resources and services.